Hauptseite
METAR-TAF:

METAR-TAF

Flughäfen :

Heringsdorf, Deutschland

Flughafen Heringsdorf

Breite: 53-53N, Länge: 014-09E, Höhe: 28 m

METAR: fehlend

Zeit: 21:19 (20:19 UTC)

Prognose

Neuester Wetterbericht von vor 30 Stunden und 19 Minuten, um 14:00 UTC
Gültige Prognose vom 17 um 15 UTC bis 17 um 24 UTC
Wind 3 kt aus unterschiedlichen Richtungen
Sichtweite 10 km oder mehr
Durchbrochene Bewölkung in der Höhe von 2000 ft
Zeitweise
vom 17 um 15 UTC bis 17 um 20 UTC
Durchbrochene Bewölkung in der Höhe von 1000 ft
Übergehend zu
vom 17 um 18 UTC bis 17 um 21 UTC
Sichtweite: 2500 m
Nebelschwaden
Zeitweise
vom 17 um 20 UTC bis 17 um 24 UTC
Sichtweite: 0500 m
Durchbrochene Bewölkung in der Höhe von 100 ft
Gefrierender Nebel

TAF: EDAH 171400Z 1715/1724 VRB03KT 9999 BKN020 TEMPO 1715/1720 BKN010 BECMG 1718/1721 2500 BCFG TEMPO 1720/1724 0500 FZFG BKN001

Wetterbeobachtungen und Prognosen von mehr als 4000 Flughäfen (METAR und TAF Bericht).

Die verfügbaren Stationen werden durch gelbe und rote Markierungen auf der Karte dargestellt.

Führen Sie die Maus auf sie, um den Namen der Station zu sehen.

Darauf klicken, um die Beobachtung von Wetterbeobachtungen und Prognosen zu sehen.

Um die Karte zu ändern : klicken Sie auf den grünen Tasten mit einem schwarzen Kreuz Zum Vergrößern, auf den grünen Button mit einem Gedankenstrich zu verkleinern, oder auf die grünen Pfeile für benachbarte Karten.


METAR-TAF: